Time;durP1;ratioP1;P1;durP2;ratioP2;P2;SDS_P1;SDS_P2;PMS_P1;PMS_P2;Temp;Humidity;BMP_temperature;BMP_pressure;BME280_temperature;BME280_humidity;BME280_pressure;Samples;Min_cycle;Max_cycle;Signal;HPM_P1;HPM_P2
2022/03/01 00:01:36;;;;;;;14.48;8.85;;;4.50;53.90;;;;;;4946575;29;20462;-52
2022/03/01 00:04:03;;;;;;;18.20;9.25;;;4.50;54.00;;;;;;4954503;29;20875;-47
2022/03/01 00:06:30;;;;;;;17.10;10.40;;;4.40;54.00;;;;;;4938135;29;20048;-50
2022/03/01 00:08:57;;;;;;;12.55;8.73;;;4.40;54.10;;;;;;4937309;29;20048;-48
2022/03/01 00:11:24;;;;;;;14.60;8.27;;;4.40;54.10;;;;;;4935162;29;20099;-47
2022/03/01 00:13:51;;;;;;;14.77;9.45;;;4.40;54.10;;;;;;4934391;29;20420;-49
2022/03/01 00:16:19;;;;;;;14.55;9.27;;;4.40;54.10;;;;;;4929131;29;20095;-50
2022/03/01 00:18:49;;;;;;;11.73;8.55;;;4.30;54.10;;;;;;4944051;28;20098;-47
2022/03/01 00:21:16;;;;;;;13.63;8.65;;;4.30;54.20;;;;;;4946312;29;20047;-50
2022/03/01 00:23:43;;;;;;;15.85;9.00;;;4.30;54.30;;;;;;4949505;29;20740;-46
2022/03/01 00:26:10;;;;;;;13.80;8.85;;;4.20;54.30;;;;;;4941665;29;20047;-51
2022/03/01 00:28:37;;;;;;;14.32;8.48;;;4.20;54.30;;;;;;4942068;28;20043;-47
2022/03/01 00:31:03;;;;;;;11.07;8.52;;;4.20;54.40;;;;;;4934053;29;20094;-47
2022/03/01 00:33:31;;;;;;;14.85;9.07;;;4.20;54.40;;;;;;4929112;29;20051;-54
2022/03/01 00:35:58;;;;;;;13.65;8.75;;;4.10;54.50;;;;;;4915935;29;20043;-47
2022/03/01 00:38:26;;;;;;;12.45;8.40;;;4.10;54.50;;;;;;4934579;29;20040;-47
2022/03/01 00:40:52;;;;;;;14.02;9.05;;;4.10;54.60;;;;;;4934847;29;20044;-47
2022/03/01 00:43:21;;;;;;;17.30;9.35;;;4.10;54.70;;;;;;4935418;29;20043;-53
2022/03/01 00:45:52;;;;;;;13.20;8.75;;;4.00;54.70;;;;;;4946092;28;20531;-46
2022/03/01 00:48:20;;;;;;;14.20;9.60;;;4.00;54.80;;;;;;4947015;29;20047;-46
2022/03/01 00:50:47;;;;;;;15.98;9.10;;;4.00;54.80;;;;;;4936484;29;20043;-47
2022/03/01 00:53:14;;;;;;;12.07;8.52;;;4.00;54.90;;;;;;4916006;29;20532;-47
2022/03/01 00:55:41;;;;;;;11.48;8.50;;;3.90;54.90;;;;;;4942419;29;20075;-46
2022/03/01 00:58:08;;;;;;;12.68;9.23;;;4.00;55.00;;;;;;4943278;28;20051;-49
2022/03/01 01:00:35;;;;;;;13.88;8.82;;;3.90;55.00;;;;;;4931068;29;20519;-50
2022/03/01 01:03:02;;;;;;;14.93;9.68;;;4.00;55.20;;;;;;4931089;29;20515;-48
2022/03/01 01:05:29;;;;;;;14.30;8.68;;;3.90;55.60;;;;;;4934152;29;20075;-49
2022/03/01 01:07:59;;;;;;;14.10;9.23;;;3.90;55.30;;;;;;4949593;29;20059;-48
2022/03/01 01:10:26;;;;;;;14.35;10.00;;;3.90;55.50;;;;;;4934117;29;20051;-48
2022/03/01 01:12:52;;;;;;;16.13;9.77;;;3.90;55.30;;;;;;4932791;29;20047;-46
2022/03/01 01:15:20;;;;;;;13.10;8.73;;;3.90;55.30;;;;;;4947398;29;20404;-50
2022/03/01 01:17:47;;;;;;;15.38;8.45;;;3.90;55.40;;;;;;4937258;28;20091;-47
2022/03/01 01:20:15;;;;;;;12.25;8.70;;;3.90;55.50;;;;;;4932554;29;20044;-50
2022/03/01 01:22:43;;;;;;;15.88;10.20;;;3.90;55.60;;;;;;4930277;29;20420;-50
2022/03/01 01:25:17;;;;;;;15.27;9.80;;;3.90;55.60;;;;;;4944385;28;20039;-47
2022/03/01 01:27:47;;;;;;;14.32;8.73;;;3.90;55.80;;;;;;4953036;28;20043;-50
2022/03/01 01:30:18;;;;;;;14.40;9.32;;;3.90;55.70;;;;;;4929755;29;20062;-46
2022/03/01 01:32:47;;;;;;;14.30;9.35;;;3.90;55.80;;;;;;4930328;29;20678;-46
2022/03/01 01:35:19;;;;;;;14.82;9.35;;;3.90;55.80;;;;;;4941612;29;20411;-48
2022/03/01 01:37:46;;;;;;;14.52;8.98;;;3.90;55.70;;;;;;4930857;29;20048;-47
2022/03/01 01:40:16;;;;;;;13.77;8.68;;;3.90;55.60;;;;;;4942013;29;20050;-46
2022/03/01 01:42:45;;;;;;;13.75;9.10;;;4.00;55.90;;;;;;4944385;29;20047;-46
2022/03/01 01:45:12;;;;;;;13.13;8.82;;;4.00;55.70;;;;;;4952783;28;20090;-47
2022/03/01 01:47:46;;;;;;;12.55;8.63;;;4.00;55.70;;;;;;4943418;28;20507;-46
2022/03/01 01:50:16;;;;;;;13.35;8.90;;;4.00;55.70;;;;;;4934850;29;20410;-47
2022/03/01 01:52:47;;;;;;;13.05;8.98;;;3.90;55.60;;;;;;4943838;29;20055;-48
2022/03/01 01:55:16;;;;;;;12.18;8.35;;;3.90;55.90;;;;;;4916526;29;20500;-50
2022/03/01 01:57:43;;;;;;;14.48;8.18;;;3.90;55.80;;;;;;4931620;29;20094;-48
2022/03/01 02:00:11;;;;;;;14.88;8.57;;;3.90;55.80;;;;;;4912123;29;20106;-46
2022/03/01 02:02:38;;;;;;;13.38;8.55;;;3.90;55.80;;;;;;4943723;29;20495;-48
2022/03/01 02:05:07;;;;;;;11.35;8.35;;;3.80;55.80;;;;;;4940422;29;20058;-47
2022/03/01 02:07:34;;;;;;;14.43;8.98;;;3.80;55.80;;;;;;4930431;29;20055;-49
2022/03/01 02:10:02;;;;;;;14.00;8.75;;;3.80;55.90;;;;;;4929470;29;20047;-51
2022/03/01 02:12:29;;;;;;;15.10;9.05;;;3.80;55.90;;;;;;4940687;29;20511;-46
2022/03/01 02:14:55;;;;;;;13.68;8.93;;;3.80;55.90;;;;;;4916510;29;20108;-46
2022/03/01 02:17:24;;;;;;;14.70;8.73;;;3.70;55.90;;;;;;4917934;29;20463;-50
2022/03/01 02:19:51;;;;;;;14.23;8.98;;;3.70;56.00;;;;;;4944588;28;20067;-47
2022/03/01 02:22:19;;;;;;;14.15;8.85;;;3.80;56.10;;;;;;4944932;29;20446;-50
2022/03/01 02:24:46;;;;;;;14.52;8.40;;;3.60;56.00;;;;;;4952660;29;20050;-49
2022/03/01 02:27:13;;;;;;;13.10;7.97;;;3.60;56.00;;;;;;4935790;28;20503;-49
2022/03/01 02:29:41;;;;;;;14.90;10.20;;;3.60;56.10;;;;;;4941386;29;20115;-48
2022/03/01 02:32:09;;;;;;;13.05;8.77;;;3.60;56.20;;;;;;4943999;29;20051;-47
2022/03/01 02:34:36;;;;;;;14.88;9.23;;;3.60;56.20;;;;;;4952081;29;20070;-47
2022/03/01 02:37:03;;;;;;;14.48;9.10;;;3.60;56.20;;;;;;4937540;28;20044;-47
2022/03/01 02:39:33;;;;;;;13.48;7.85;;;3.60;56.30;;;;;;4946974;29;20045;-46
2022/03/01 02:42:00;;;;;;;12.98;9.13;;;3.60;56.40;;;;;;4951808;28;20546;-47
2022/03/01 02:44:27;;;;;;;14.38;8.77;;;3.60;56.50;;;;;;4943286;28;20042;-46
2022/03/01 02:46:57;;;;;;;15.32;8.80;;;3.60;56.50;;;;;;4931694;29;20040;-48
2022/03/01 02:49:24;;;;;;;15.25;9.27;;;3.60;56.60;;;;;;4944706;28;20040;-47
2022/03/01 02:51:51;;;;;;;15.20;9.18;;;3.60;56.60;;;;;;4952766;28;20043;-51
2022/03/01 02:54:18;;;;;;;14.15;9.52;;;3.60;56.60;;;;;;4938471;29;20074;-46
2022/03/01 02:56:45;;;;;;;13.30;8.35;;;3.60;56.60;;;;;;4943415;28;20035;-48
2022/03/01 02:59:12;;;;;;;12.65;8.15;;;3.60;56.70;;;;;;4949836;28;20031;-46
2022/03/01 03:01:39;;;;;;;13.95;9.30;;;3.50;56.80;;;;;;4946772;29;20047;-47
2022/03/01 03:04:06;;;;;;;15.55;9.32;;;3.50;56.80;;;;;;4943250;29;20108;-47
2022/03/01 03:06:32;;;;;;;14.15;9.45;;;3.50;56.80;;;;;;4947976;29;20051;-47
2022/03/01 03:08:59;;;;;;;13.05;9.25;;;3.50;56.90;;;;;;4946297;29;20059;-47
2022/03/01 03:11:26;;;;;;;13.68;9.32;;;3.50;56.90;;;;;;4936197;29;20118;-50
2022/03/01 03:13:52;;;;;;;14.32;9.40;;;3.40;56.90;;;;;;4934193;29;20460;-46
2022/03/01 03:16:19;;;;;;;14.15;9.20;;;3.50;56.90;;;;;;4945236;29;20495;-46
2022/03/01 03:18:46;;;;;;;14.85;9.00;;;3.40;56.90;;;;;;4947389;29;20739;-47
2022/03/01 03:21:13;;;;;;;18.08;9.68;;;3.40;57.00;;;;;;4955560;29;20062;-48
2022/03/01 03:23:40;;;;;;;18.13;10.38;;;3.40;56.90;;;;;;4938872;28;20515;-46
2022/03/01 03:26:06;;;;;;;15.23;9.57;;;3.40;57.00;;;;;;4948009;28;20047;-48
2022/03/01 03:28:34;;;;;;;16.08;9.93;;;3.40;57.10;;;;;;4944997;28;20519;-48
2022/03/01 03:31:01;;;;;;;13.88;9.45;;;3.30;57.10;;;;;;4936437;29;20040;-47
2022/03/01 03:33:28;;;;;;;15.35;9.82;;;3.40;57.20;;;;;;4917355;29;20138;-47
2022/03/01 03:35:56;;;;;;;15.32;9.50;;;3.40;57.30;;;;;;4929375;28;20039;-47
2022/03/01 03:38:25;;;;;;;16.42;10.23;;;3.30;57.20;;;;;;4936764;29;20036;-48
2022/03/01 03:40:52;;;;;;;15.73;10.15;;;3.40;57.30;;;;;;4936230;29;20074;-46
2022/03/01 03:43:21;;;;;;;15.38;9.50;;;3.40;57.20;;;;;;4968972;23;20132;-44
2022/03/01 03:45:48;;;;;;;17.00;9.93;;;3.40;57.30;;;;;;5012382;28;20104;-44
2022/03/01 03:48:15;;;;;;;15.82;10.13;;;3.30;57.30;;;;;;5032616;28;20587;-45
2022/03/01 03:50:42;;;;;;;16.02;10.02;;;3.30;57.30;;;;;;5033010;28;20103;-46
2022/03/01 03:53:09;;;;;;;16.38;10.65;;;3.30;57.30;;;;;;5013707;28;20050;-49
2022/03/01 03:55:38;;;;;;;15.63;9.43;;;3.30;57.30;;;;;;5008058;28;20041;-46
2022/03/01 03:58:05;;;;;;;18.25;10.65;;;3.30;57.30;;;;;;5031752;28;20037;-49
2022/03/01 04:00:32;;;;;;;17.17;10.45;;;3.30;57.40;;;;;;5032961;28;20452;-46
2022/03/01 04:02:59;;;;;;;16.05;10.18;;;3.30;57.40;;;;;;5032339;28;20052;-46
2022/03/01 04:05:27;;;;;;;18.30;10.65;;;3.40;57.50;;;;;;5032540;28;20048;-46
2022/03/01 04:07:54;;;;;;;15.63;10.20;;;3.30;57.50;;;;;;5032218;28;20049;-48
2022/03/01 04:10:21;;;;;;;15.05;9.32;;;3.30;57.50;;;;;;5012547;28;20045;-46
2022/03/01 04:12:48;;;;;;;17.58;10.27;;;3.30;57.50;;;;;;5012415;28;20046;-45
2022/03/01 04:15:15;;;;;;;15.80;9.65;;;3.40;57.60;;;;;;5012479;28;20088;-48
2022/03/01 04:17:42;;;;;;;17.17;10.23;;;3.40;57.70;;;;;;5012579;28;20494;-46
2022/03/01 04:20:09;;;;;;;17.90;10.90;;;3.40;57.70;;;;;;5009514;28;20050;-45
2022/03/01 04:22:37;;;;;;;16.58;10.45;;;3.40;57.80;;;;;;5029920;28;20079;-48
2022/03/01 04:25:06;;;;;;;13.68;8.88;;;3.40;57.90;;;;;;5032293;28;20108;-47
2022/03/01 04:27:32;;;;;;;13.38;9.25;;;3.40;57.90;;;;;;5027780;28;20041;-46
2022/03/01 04:29:59;;;;;;;14.93;10.50;;;3.40;57.90;;;;;;5020567;28;20143;-45
2022/03/01 04:32:26;;;;;;;18.00;10.27;;;3.40;58.00;;;;;;5031731;28;20045;-46
2022/03/01 04:34:53;;;;;;;16.35;10.30;;;3.40;58.00;;;;;;5032086;28;20045;-45
2022/03/01 04:37:20;;;;;;;13.52;9.18;;;3.50;58.20;;;;;;5022706;28;20088;-49
2022/03/01 04:39:46;;;;;;;13.45;9.40;;;3.50;58.30;;;;;;5018931;28;20108;-47
2022/03/01 04:42:16;;;;;;;13.57;9.00;;;3.50;58.30;;;;;;5007095;28;20489;-45
2022/03/01 04:44:46;;;;;;;17.70;9.80;;;3.50;58.30;;;;;;5029975;28;20132;-47
2022/03/01 04:47:15;;;;;;;12.57;8.93;;;3.50;58.30;;;;;;5031498;28;20524;-48
2022/03/01 04:49:42;;;;;;;15.70;9.60;;;3.50;58.30;;;;;;5005749;28;20099;-47
2022/03/01 04:52:10;;;;;;;16.65;9.68;;;3.50;58.30;;;;;;5029080;28;20056;-45
2022/03/01 04:54:37;;;;;;;16.25;9.98;;;3.60;58.50;;;;;;5031536;28;20099;-46
2022/03/01 04:57:04;;;;;;;16.08;9.82;;;3.50;58.50;;;;;;5019879;28;20104;-51
2022/03/01 04:59:31;;;;;;;16.02;9.30;;;3.60;59.20;;;;;;5014040;28;20045;-45
2022/03/01 05:01:58;;;;;;;15.52;10.40;;;3.60;58.60;;;;;;5031504;28;20041;-49
2022/03/01 05:04:25;;;;;;;13.95;8.80;;;3.60;58.60;;;;;;5025808;28;20041;-46
2022/03/01 05:06:53;;;;;;;16.70;10.15;;;3.60;58.60;;;;;;5014987;28;20042;-48
2022/03/01 05:09:24;;;;;;;14.95;9.88;;;3.70;58.80;;;;;;5031562;28;20092;-45
2022/03/01 05:11:51;;;;;;;17.38;10.02;;;3.60;58.80;;;;;;5015053;28;20056;-51
2022/03/01 05:14:19;;;;;;;16.67;10.23;;;3.70;58.90;;;;;;5010210;28;20046;-46
2022/03/01 05:16:46;;;;;;;14.57;10.27;;;3.70;58.90;;;;;;5013399;28;20462;-46
2022/03/01 05:19:15;;;;;;;16.88;9.55;;;3.70;59.00;;;;;;5009133;28;20044;-51
2022/03/01 05:21:42;;;;;;;15.63;10.00;;;3.70;59.20;;;;;;5017693;28;20038;-46
2022/03/01 05:24:10;;;;;;;14.77;10.25;;;3.80;59.20;;;;;;5024986;28;20087;-48
2022/03/01 05:26:37;;;;;;;17.00;9.57;;;3.80;59.80;;;;;;5018474;28;20099;-48
2022/03/01 05:29:04;;;;;;;15.40;9.82;;;3.80;59.20;;;;;;5017820;28;20104;-49
2022/03/01 05:31:31;;;;;;;18.35;10.85;;;3.90;59.30;;;;;;5016338;28;20045;-47
2022/03/01 05:33:58;;;;;;;16.00;8.85;;;3.90;59.30;;;;;;5020438;28;20505;-46
2022/03/01 05:36:24;;;;;;;12.77;8.73;;;3.90;59.40;;;;;;5021840;28;20041;-49
2022/03/01 05:38:51;;;;;;;15.27;10.18;;;4.00;59.40;;;;;;5020418;28;20073;-48
2022/03/01 05:41:20;;;;;;;15.82;10.88;;;4.00;59.40;;;;;;5027082;28;20464;-45
2022/03/01 05:43:47;;;;;;;15.55;9.88;;;4.00;59.60;;;;;;5019168;28;20053;-48
2022/03/01 05:46:14;;;;;;;16.83;10.43;;;4.00;59.50;;;;;;5026302;28;20521;-46
2022/03/01 05:48:42;;;;;;;15.57;10.00;;;4.10;59.50;;;;;;5027020;28;20033;-46
2022/03/01 05:51:09;;;;;;;18.65;10.82;;;4.10;59.60;;;;;;5024453;28;20078;-48
2022/03/01 05:53:36;;;;;;;18.40;10.75;;;4.10;59.60;;;;;;5015944;28;20041;-46
2022/03/01 05:56:04;;;;;;;16.52;9.90;;;4.20;59.70;;;;;;5019097;28;20506;-49
2022/03/01 05:58:31;;;;;;;16.23;10.40;;;4.20;59.70;;;;;;5022393;28;20502;-47
2022/03/01 06:00:58;;;;;;;17.23;10.35;;;4.20;59.70;;;;;;5022999;28;20456;-46
2022/03/01 06:03:25;;;;;;;17.30;11.57;;;4.30;59.70;;;;;;5020495;28;20042;-46
2022/03/01 06:05:52;;;;;;;18.05;11.38;;;4.30;59.70;;;;;;5011804;28;20041;-46
2022/03/01 06:08:19;;;;;;;25.27;16.27;;;4.30;59.70;;;;;;5023483;28;20040;-46
2022/03/01 06:10:46;;;;;;;27.65;19.58;;;4.40;59.70;;;;;;5020196;28;20104;-47
2022/03/01 06:13:13;;;;;;;25.05;14.45;;;4.40;59.70;;;;;;5012172;28;20049;-48
2022/03/01 06:15:44;;;;;;;19.63;11.50;;;4.40;59.70;;;;;;5028171;28;20037;-46
2022/03/01 06:18:12;;;;;;;16.58;10.90;;;4.50;59.60;;;;;;5030124;28;20108;-46
2022/03/01 06:20:39;;;;;;;20.20;11.70;;;4.50;59.40;;;;;;5026957;28;20046;-47
2022/03/01 06:23:06;;;;;;;17.33;10.65;;;4.60;59.40;;;;;;5014949;28;20045;-45
2022/03/01 06:25:33;;;;;;;19.17;11.98;;;4.60;59.30;;;;;;5023857;28;20045;-46
2022/03/01 06:28:00;;;;;;;16.40;10.68;;;4.70;59.30;;;;;;5015968;28;20053;-51
2022/03/01 06:30:29;;;;;;;21.88;12.80;;;4.70;59.20;;;;;;5011141;28;20038;-47
2022/03/01 06:32:56;;;;;;;19.70;12.77;;;4.70;59.10;;;;;;5021434;28;20037;-47
2022/03/01 06:35:23;;;;;;;22.55;12.90;;;4.80;59.10;;;;;;5017788;28;20041;-50
2022/03/01 06:37:52;;;;;;;20.13;12.23;;;4.80;59.10;;;;;;5005081;28;20042;-45
2022/03/01 06:40:19;;;;;;;20.13;11.18;;;4.90;59.10;;;;;;5016538;28;20520;-49
2022/03/01 06:42:48;;;;;;;17.10;11.38;;;4.90;58.90;;;;;;5023488;28;20642;-54
2022/03/01 06:45:15;;;;;;;13.77;9.82;;;4.90;58.90;;;;;;5011321;28;20049;-45
2022/03/01 06:47:42;;;;;;;17.17;11.13;;;4.90;58.90;;;;;;5016379;28;20099;-46
2022/03/01 06:50:09;;;;;;;16.55;11.05;;;4.90;58.80;;;;;;5014652;28;20042;-46
2022/03/01 06:52:37;;;;;;;18.08;10.65;;;5.00;58.80;;;;;;5020102;28;20041;-46
2022/03/01 06:55:05;;;;;;;17.75;10.52;;;5.00;58.70;;;;;;5016623;28;20508;-48
2022/03/01 06:57:32;;;;;;;20.63;10.82;;;5.00;58.60;;;;;;5006793;28;20046;-51
2022/03/01 06:59:59;;;;;;;16.27;10.07;;;5.00;58.60;;;;;;5016612;28;20092;-46
2022/03/01 07:02:26;;;;;;;15.02;10.25;;;5.00;58.70;;;;;;4995947;28;20099;-46
2022/03/01 07:04:56;;;;;;;17.48;11.02;;;5.00;58.70;;;;;;5018969;28;20092;-49
2022/03/01 07:07:23;;;;;;;16.30;10.68;;;5.00;58.70;;;;;;5014585;28;20042;-46
2022/03/01 07:09:50;;;;;;;20.85;13.27;;;5.00;58.70;;;;;;5018399;28;20041;-45
2022/03/01 07:12:22;;;;;;;18.80;11.10;;;5.00;58.70;;;;;;5021154;28;20071;-49
2022/03/01 07:14:49;;;;;;;16.67;11.23;;;5.00;58.70;;;;;;5020814;28;20448;-46
2022/03/01 07:17:19;;;;;;;18.50;11.05;;;5.00;58.80;;;;;;5006897;28;20057;-49
2022/03/01 07:19:45;;;;;;;20.90;11.20;;;5.10;59.10;;;;;;5017668;28;20046;-51
2022/03/01 07:22:12;;;;;;;18.55;10.95;;;5.10;58.90;;;;;;5023383;28;20603;-49
2022/03/01 07:24:39;;;;;;;15.57;9.95;;;5.10;59.00;;;;;;5029204;28;20038;-44
2022/03/01 07:27:06;;;;;;;15.88;9.82;;;5.10;59.00;;;;;;5005678;28;20046;-47
2022/03/01 07:29:36;;;;;;;16.90;10.48;;;5.20;59.00;;;;;;5017654;28;20124;-46
2022/03/01 07:32:07;;;;;;;15.23;9.65;;;5.20;59.00;;;;;;5026867;28;20049;-48
2022/03/01 07:34:35;;;;;;;15.57;9.95;;;5.30;59.10;;;;;;5023368;28;20073;-49
2022/03/01 07:37:04;;;;;;;18.48;11.00;;;5.30;59.00;;;;;;5019155;28;20103;-48
2022/03/01 07:39:30;;;;;;;20.55;11.45;;;5.40;59.00;;;;;;5019232;28;20107;-46
2022/03/01 07:41:57;;;;;;;17.55;11.07;;;5.40;58.90;;;;;;5026622;28;20041;-50
2022/03/01 07:44:24;;;;;;;18.13;12.32;;;5.50;58.90;;;;;;5025068;28;20038;-48
2022/03/01 07:46:51;;;;;;;18.50;10.90;;;5.60;58.90;;;;;;5016721;28;20046;-53
2022/03/01 07:49:18;;;;;;;14.82;11.13;;;5.60;58.70;;;;;;5025184;28;20144;-45
2022/03/01 07:51:45;;;;;;;19.90;11.70;;;5.70;58.70;;;;;;5024322;28;20092;-46
2022/03/01 07:54:12;;;;;;;17.73;10.77;;;5.70;58.70;;;;;;5014750;28;20068;-49
2022/03/01 07:56:40;;;;;;;17.30;11.15;;;5.80;58.50;;;;;;5013042;28;20042;-46
2022/03/01 07:59:07;;;;;;;16.92;11.38;;;5.90;58.40;;;;;;5008775;28;20131;-47
2022/03/01 08:01:34;;;;;;;16.92;10.52;;;6.00;58.40;;;;;;5022887;28;20390;-46
2022/03/01 08:04:02;;;;;;;17.50;11.50;;;6.10;58.30;;;;;;5018095;28;20162;-46
2022/03/01 08:06:28;;;;;;;17.65;10.40;;;6.20;58.30;;;;;;5021813;28;20713;-49
2022/03/01 08:08:55;;;;;;;18.02;11.38;;;6.20;58.20;;;;;;5018940;28;20093;-46
2022/03/01 08:11:22;;;;;;;17.58;10.85;;;6.30;57.90;;;;;;5021727;28;20107;-47
2022/03/01 08:13:53;;;;;;;13.98;9.88;;;6.40;57.60;;;;;;5019260;28;20049;-45
2022/03/01 08:16:20;;;;;;;15.93;11.23;;;6.50;57.50;;;;;;5023268;28;20507;-48
2022/03/01 08:18:46;;;;;;;18.63;11.02;;;6.50;57.10;;;;;;5023219;28;20048;-46
2022/03/01 08:21:13;;;;;;;18.08;11.52;;;6.60;57.10;;;;;;5014508;28;20104;-48
2022/03/01 08:23:42;;;;;;;17.10;11.73;;;6.70;57.20;;;;;;5019371;28;20444;-49
2022/03/01 08:26:09;;;;;;;17.77;9.85;;;6.80;57.00;;;;;;5025821;28;20042;-46
2022/03/01 08:28:36;;;;;;;16.35;10.13;;;6.90;56.80;;;;;;5023780;28;20072;-46
2022/03/01 08:31:03;;;;;;;15.50;11.65;;;7.00;56.50;;;;;;5024588;28;20100;-48
2022/03/01 08:33:30;;;;;;;16.55;11.65;;;7.00;56.30;;;;;;5010733;28;20061;-46
2022/03/01 08:35:57;;;;;;;15.40;10.90;;;7.10;56.20;;;;;;5023133;28;20066;-49
2022/03/01 08:38:25;;;;;;;16.00;11.07;;;7.20;56.10;;;;;;5020147;28;20386;-46
2022/03/01 08:40:53;;;;;;;17.23;11.65;;;7.20;55.90;;;;;;5015147;28;20413;-47
2022/03/01 08:43:21;;;;;;;18.42;11.35;;;7.30;55.60;;;;;;5018166;28;20460;-47
2022/03/01 08:45:49;;;;;;;17.10;10.60;;;7.40;55.60;;;;;;5017990;28;20041;-46
2022/03/01 08:48:17;;;;;;;16.35;11.50;;;7.40;55.50;;;;;;5015275;28;20513;-48
2022/03/01 08:50:44;;;;;;;18.38;10.32;;;7.50;55.40;;;;;;5018177;28;20125;-45
2022/03/01 08:53:16;;;;;;;17.40;10.00;;;7.50;55.20;;;;;;5017407;28;20041;-47
2022/03/01 08:55:43;;;;;;;19.42;10.50;;;7.60;55.20;;;;;;5023638;28;20619;-46
2022/03/01 08:58:10;;;;;;;15.80;10.07;;;7.60;55.00;;;;;;5021474;28;20350;-47
2022/03/01 09:00:37;;;;;;;15.50;11.10;;;7.60;54.80;;;;;;5016238;28;20045;-51
2022/03/01 09:03:05;;;;;;;17.95;10.50;;;7.60;54.80;;;;;;5019450;28;20041;-45
2022/03/01 09:05:33;;;;;;;16.92;11.02;;;7.70;54.80;;;;;;5022232;28;20046;-45
2022/03/01 09:08:00;;;;;;;16.70;10.50;;;7.70;55.00;;;;;;5020894;28;20046;-47
2022/03/01 09:10:27;;;;;;;14.90;11.80;;;7.70;55.20;;;;;;5016270;28;20095;-48
2022/03/01 09:12:56;;;;;;;17.08;11.38;;;7.80;55.40;;;;;;5013876;28;20527;-48
2022/03/01 09:15:23;;;;;;;14.52;10.23;;;7.80;55.40;;;;;;4996254;28;20667;-45
2022/03/01 09:17:51;;;;;;;19.05;11.00;;;7.90;55.40;;;;;;4992978;28;20505;-44
2022/03/01 09:20:18;;;;;;;15.85;10.60;;;8.00;55.30;;;;;;5012249;28;20041;-43
2022/03/01 09:22:45;;;;;;;16.55;11.02;;;8.10;55.30;;;;;;5019536;28;20042;-46
2022/03/01 09:25:12;;;;;;;15.63;10.05;;;8.20;55.10;;;;;;5028952;28;20041;-47
2022/03/01 09:27:39;;;;;;;13.30;10.60;;;8.30;54.90;;;;;;5030207;28;20045;-43
2022/03/01 09:30:06;;;;;;;14.15;10.30;;;8.40;54.70;;;;;;5017460;28;20045;-47
2022/03/01 09:32:33;;;;;;;19.05;11.13;;;8.60;54.30;;;;;;5024652;28;20048;-46
2022/03/01 09:35:00;;;;;;;15.00;10.82;;;8.70;53.90;;;;;;5029499;28;20472;-49
2022/03/01 09:37:31;;;;;;;14.07;10.85;;;8.70;53.70;;;;;;5007395;28;20107;-45
2022/03/01 09:39:59;;;;;;;13.95;10.02;;;8.80;53.50;;;;;;5018864;28;20049;-44
2022/03/01 09:42:27;;;;;;;13.95;9.48;;;8.90;53.40;;;;;;5024313;28;20087;-46
2022/03/01 09:44:55;;;;;;;13.80;9.57;;;9.00;53.20;;;;;;4994436;28;20082;-47
2022/03/01 09:47:22;;;;;;;13.05;10.13;;;9.10;53.00;;;;;;5010053;23;20088;-44
2022/03/01 09:49:49;;;;;;;13.15;9.55;;;9.10;52.90;;;;;;5011480;28;20836;-47
2022/03/01 09:52:17;;;;;;;14.05;9.88;;;9.20;52.60;;;;;;4990533;28;20046;-47
2022/03/01 09:54:44;;;;;;;15.32;10.20;;;9.30;52.40;;;;;;4988996;28;20042;-47
2022/03/01 09:57:13;;;;;;;16.13;10.02;;;9.30;52.30;;;;;;4980686;28;20039;-47
2022/03/01 09:59:41;;;;;;;15.50;9.82;;;9.40;52.10;;;;;;4990824;28;20043;-48
2022/03/01 10:02:08;;;;;;;12.90;9.07;;;9.50;52.00;;;;;;5008169;28;20046;-47
2022/03/01 10:04:56;;;;;;;13.38;10.15;;;9.50;51.90;;;;;;5010099;28;20042;-47
2022/03/01 10:07:24;;;;;;;15.63;9.77;;;9.50;51.10;;;;;;4990700;28;20069;-47
2022/03/01 10:09:52;;;;;;;12.68;10.57;;;9.60;51.60;;;;;;4989030;28;20042;-47
2022/03/01 10:12:26;;;;;;;12.52;9.75;;;9.80;51.70;;;;;;5009980;28;20071;-45
2022/03/01 10:15:03;;;;;;;13.48;9.73;;;9.70;51.20;;;;;;5003988;28;20046;-47
2022/03/01 10:17:38;;;;;;;14.02;9.32;;;9.80;51.30;;;;;;4994693;28;20053;-46
2022/03/01 10:20:19;;;;;;;12.60;9.35;;;9.80;50.80;;;;;;4993684;28;20089;-46
2022/03/01 10:22:53;;;;;;;15.00;8.70;;;9.90;50.90;;;;;;4997518;28;20042;-46
2022/03/01 10:25:22;;;;;;;13.82;9.73;;;9.90;51.10;;;;;;5010589;28;20042;-47
2022/03/01 10:27:52;;;;;;;12.43;9.68;;;9.90;50.90;;;;;;4994082;28;20571;-47
2022/03/01 10:30:28;;;;;;;11.75;8.73;;;10.00;50.70;;;;;;5002506;28;20067;-46
2022/03/01 10:33:13;;;;;;;14.75;10.60;;;10.10;50.60;;;;;;4998165;28;20042;-46
2022/03/01 10:35:57;;;;;;;13.75;9.77;;;10.20;50.30;;;;;;4999427;28;20034;-47
2022/03/01 10:38:24;;;;;;;15.00;10.63;;;10.20;50.10;;;;;;4999246;28;20473;-45
2022/03/01 10:41:00;;;;;;;11.50;9.38;;;10.30;50.60;;;;;;4994574;28;20058;-46
2022/03/01 10:43:28;;;;;;;13.77;10.15;;;10.30;50.50;;;;;;4994038;28;20097;-47
2022/03/01 10:45:56;;;;;;;14.70;10.00;;;10.40;50.30;;;;;;4995501;28;20040;-47
2022/03/01 10:48:29;;;;;;;12.80;9.15;;;10.50;50.30;;;;;;5004516;28;20673;-47
2022/03/01 10:51:08;;;;;;;13.13;9.95;;;10.60;49.90;;;;;;5003313;28;20042;-47
2022/03/01 10:53:40;;;;;;;13.45;9.70;;;10.70;49.50;;;;;;4989337;28;20038;-47
2022/03/01 10:56:09;;;;;;;14.50;9.80;;;10.80;49.80;;;;;;5002537;28;20045;-48
2022/03/01 10:58:38;;;;;;;15.18;10.38;;;10.80;49.70;;;;;;5009830;28;20038;-47
2022/03/01 11:01:06;;;;;;;14.65;9.45;;;10.90;49.60;;;;;;5003759;28;20502;-51
2022/03/01 11:03:33;;;;;;;11.20;9.57;;;11.00;49.60;;;;;;5000956;28;20116;-50
2022/03/01 11:06:01;;;;;;;12.65;10.40;;;11.00;49.30;;;;;;5004100;28;20149;-53
2022/03/01 11:08:38;;;;;;;13.45;9.65;;;11.10;49.20;;;;;;4992695;28;20053;-55
2022/03/01 11:11:09;;;;;;;14.43;11.18;;;11.20;49.10;;;;;;4985415;28;20074;-51
2022/03/01 11:13:43;;;;;;;13.82;9.80;;;11.30;48.90;;;;;;4991360;28;20063;-50
2022/03/01 11:16:31;;;;;;;13.68;9.35;;;11.30;48.70;;;;;;4991086;28;20699;-54
2022/03/01 11:19:17;;;;;;;13.85;8.77;;;11.40;48.30;;;;;;4991304;28;20042;-51
2022/03/01 11:21:47;;;;;;;10.88;8.13;;;11.40;48.00;;;;;;4970354;28;20050;-49
2022/03/01 11:24:17;;;;;;;11.23;8.18;;;11.40;48.40;;;;;;5010984;28;20092;-50
2022/03/01 11:26:44;;;;;;;13.10;9.15;;;11.50;48.50;;;;;;5002011;28;20050;-49
2022/03/01 11:29:13;;;;;;;14.80;9.05;;;11.50;48.30;;;;;;4977588;28;20050;-53
2022/03/01 11:31:43;;;;;;;12.15;8.93;;;11.50;48.30;;;;;;4987764;28;20122;-49
2022/03/01 11:34:15;;;;;;;13.60;8.88;;;11.50;48.30;;;;;;4992350;28;20050;-51
2022/03/01 11:36:53;;;;;;;13.02;9.55;;;11.50;48.00;;;;;;4990823;28;20046;-50
2022/03/01 11:39:33;;;;;;;11.68;8.65;;;11.50;47.70;;;;;;5000974;28;20088;-53
2022/03/01 11:42:16;;;;;;;13.23;8.68;;;11.60;48.10;;;;;;4998506;28;20101;-53
2022/03/01 11:44:52;;;;;;;12.05;8.93;;;11.60;48.30;;;;;;4992672;28;20038;-52
2022/03/01 11:47:25;;;;;;;12.50;8.30;;;11.70;47.80;;;;;;4992706;28;20049;-49
2022/03/01 11:50:15;;;;;;;15.32;9.13;;;11.70;47.90;;;;;;4982039;28;20050;-52
2022/03/01 11:52:53;;;;;;;11.82;9.13;;;11.80;48.00;;;;;;4990910;28;20046;-52
2022/03/01 11:55:21;;;;;;;12.05;9.10;;;11.90;47.80;;;;;;5011735;28;20045;-51
2022/03/01 11:57:50;;;;;;;13.48;9.00;;;11.90;47.90;;;;;;4996148;28;20043;-48
2022/03/01 12:00:19;;;;;;;13.27;8.90;;;12.00;47.50;;;;;;5000161;28;20093;-53
2022/03/01 12:02:47;;;;;;;12.43;8.60;;;12.10;47.60;;;;;;5002630;28;20462;-51
2022/03/01 12:05:24;;;;;;;13.82;9.85;;;12.10;47.70;;;;;;4999129;28;20039;-51
2022/03/01 12:07:53;;;;;;;13.95;8.98;;;12.20;47.20;;;;;;4987312;28;20428;-49
2022/03/01 12:11:02;;;;;;;10.05;8.27;;;12.30;47.90;;;;;;4962903;28;20046;-51
2022/03/01 12:13:50;;;;;;;12.15;8.73;;;12.40;46.80;;;;;;5002094;28;20050;-49
2022/03/01 12:16:27;;;;;;;13.85;9.93;;;12.50;47.10;;;;;;4982667;28;20057;-49
2022/03/01 12:19:09;;;;;;;12.57;8.52;;;12.70;47.10;;;;;;5001101;28;20515;-52
2022/03/01 12:21:38;;;;;;;12.63;8.73;;;12.80;46.00;;;;;;5000465;28;20042;-53
2022/03/01 12:24:06;;;;;;;11.05;8.43;;;13.00;46.60;;;;;;5003542;28;20107;-53
2022/03/01 12:26:50;;;;;;;12.55;8.07;;;13.20;46.20;;;;;;4996021;28;20414;-49
2022/03/01 12:29:19;;;;;;;13.98;8.32;;;13.30;45.20;;;;;;4996465;28;20065;-50
2022/03/01 12:32:07;;;;;;;12.48;8.18;;;13.50;45.50;;;;;;5003281;28;20038;-51
2022/03/01 12:34:35;;;;;;;13.55;8.35;;;13.70;44.90;;;;;;5000059;28;20642;-49
2022/03/01 12:37:05;;;;;;;12.32;8.35;;;13.80;45.30;;;;;;4997371;28;20038;-53
2022/03/01 12:39:33;;;;;;;11.43;7.65;;;14.00;45.40;;;;;;5001089;28;20042;-52
2022/03/01 12:42:00;;;;;;;15.88;8.88;;;14.10;45.20;;;;;;5005413;28;20096;-52
2022/03/01 12:44:28;;;;;;;10.23;8.45;;;14.20;45.00;;;;;;4998417;28;20521;-51
2022/03/01 12:46:57;;;;;;;13.43;8.38;;;14.30;44.50;;;;;;4989361;28;20136;-52
2022/03/01 12:49:25;;;;;;;10.55;8.07;;;14.40;44.20;;;;;;4994046;28;20037;-52